sensor_id;sensor_type;location;lat;lon;timestamp;P1;durP1;ratioP1;P2;durP2;ratioP2
80681;SDS011;70045;40.200;44.582;2023-06-22T00:02:22;4.07;;;1.27;;
80681;SDS011;70045;40.200;44.582;2023-06-22T00:04:48;1.90;;;1.23;;
80681;SDS011;70045;40.200;44.582;2023-06-22T00:07:13;2.10;;;1.00;;
80681;SDS011;70045;40.200;44.582;2023-06-22T00:09:38;2.53;;;1.40;;
80681;SDS011;70045;40.200;44.582;2023-06-22T00:12:04;2.53;;;0.88;;
80681;SDS011;70045;40.200;44.582;2023-06-22T00:14:35;1.90;;;0.90;;
80681;SDS011;70045;40.200;44.582;2023-06-22T00:17:01;2.58;;;0.73;;
80681;SDS011;70045;40.200;44.582;2023-06-22T00:19:29;2.30;;;0.90;;
80681;SDS011;70045;40.200;44.582;2023-06-22T00:21:54;1.90;;;0.90;;
80681;SDS011;70045;40.200;44.582;2023-06-22T00:24:20;3.83;;;1.00;;
80681;SDS011;70045;40.200;44.582;2023-06-22T00:26:48;3.65;;;1.30;;
80681;SDS011;70045;40.200;44.582;2023-06-22T00:29:14;2.28;;;1.27;;
80681;SDS011;70045;40.200;44.582;2023-06-22T00:31:39;3.08;;;1.50;;
80681;SDS011;70045;40.200;44.582;2023-06-22T00:34:05;3.00;;;1.40;;
80681;SDS011;70045;40.200;44.582;2023-06-22T00:36:30;4.82;;;1.70;;
80681;SDS011;70045;40.200;44.582;2023-06-22T00:38:58;3.70;;;1.20;;
80681;SDS011;70045;40.200;44.582;2023-06-22T00:41:24;1.42;;;0.80;;
80681;SDS011;70045;40.200;44.582;2023-06-22T00:43:49;1.48;;;1.00;;
80681;SDS011;70045;40.200;44.582;2023-06-22T00:46:14;1.48;;;0.75;;
80681;SDS011;70045;40.200;44.582;2023-06-22T00:48:40;1.00;;;0.90;;
80681;SDS011;70045;40.200;44.582;2023-06-22T00:51:08;1.38;;;0.93;;
80681;SDS011;70045;40.200;44.582;2023-06-22T00:53:34;3.13;;;1.13;;
80681;SDS011;70045;40.200;44.582;2023-06-22T00:56:00;1.90;;;1.20;;
80681;SDS011;70045;40.200;44.582;2023-06-22T00:58:26;4.63;;;1.10;;
80681;SDS011;70045;40.200;44.582;2023-06-22T01:00:51;4.90;;;1.27;;
80681;SDS011;70045;40.200;44.582;2023-06-22T01:03:19;2.45;;;0.95;;
80681;SDS011;70045;40.200;44.582;2023-06-22T01:05:45;4.88;;;1.40;;
80681;SDS011;70045;40.200;44.582;2023-06-22T01:16:14;5.25;;;1.80;;
80681;SDS011;70045;40.200;44.582;2023-06-22T01:18:48;3.92;;;1.40;;
80681;SDS011;70045;40.200;44.582;2023-06-22T01:21:17;3.60;;;1.63;;
80681;SDS011;70045;40.200;44.582;2023-06-22T01:24:10;5.13;;;1.65;;
80681;SDS011;70045;40.200;44.582;2023-06-22T01:29:26;3.13;;;1.52;;
80681;SDS011;70045;40.200;44.582;2023-06-22T01:31:54;4.70;;;1.50;;
80681;SDS011;70045;40.200;44.582;2023-06-22T01:34:24;4.00;;;1.17;;
80681;SDS011;70045;40.200;44.582;2023-06-22T01:36:51;2.13;;;1.38;;
80681;SDS011;70045;40.200;44.582;2023-06-22T01:39:17;6.30;;;1.77;;
80681;SDS011;70045;40.200;44.582;2023-06-22T01:41:43;5.00;;;1.70;;
80681;SDS011;70045;40.200;44.582;2023-06-22T01:44:11;3.55;;;1.50;;
80681;SDS011;70045;40.200;44.582;2023-06-22T01:46:40;3.65;;;1.40;;
80681;SDS011;70045;40.200;44.582;2023-06-22T01:49:06;2.92;;;1.40;;
80681;SDS011;70045;40.200;44.582;2023-06-22T01:51:33;4.60;;;2.03;;
80681;SDS011;70045;40.200;44.582;2023-06-22T01:53:58;6.40;;;2.33;;
80681;SDS011;70045;40.200;44.582;2023-06-22T01:56:23;6.18;;;2.58;;
80681;SDS011;70045;40.200;44.582;2023-06-22T01:59:14;6.88;;;2.13;;
80681;SDS011;70045;40.200;44.582;2023-06-22T02:01:52;4.38;;;1.73;;
80681;SDS011;70045;40.200;44.582;2023-06-22T02:04:24;2.92;;;1.48;;
80681;SDS011;70045;40.200;44.582;2023-06-22T02:06:59;3.00;;;1.48;;
80681;SDS011;70045;40.200;44.582;2023-06-22T02:09:31;2.97;;;1.52;;
80681;SDS011;70045;40.200;44.582;2023-06-22T02:11:57;5.63;;;2.40;;
80681;SDS011;70045;40.200;44.582;2023-06-22T02:14:25;9.00;;;2.88;;
80681;SDS011;70045;40.200;44.582;2023-06-22T02:16:51;5.30;;;2.38;;
80681;SDS011;70045;40.200;44.582;2023-06-22T02:19:17;6.82;;;2.08;;
80681;SDS011;70045;40.200;44.582;2023-06-22T02:21:50;9.75;;;1.90;;
80681;SDS011;70045;40.200;44.582;2023-06-22T02:24:16;3.47;;;1.60;;
80681;SDS011;70045;40.200;44.582;2023-06-22T02:26:42;3.67;;;1.50;;
80681;SDS011;70045;40.200;44.582;2023-06-22T02:29:08;2.13;;;1.20;;
80681;SDS011;70045;40.200;44.582;2023-06-22T02:31:33;3.08;;;1.13;;
80681;SDS011;70045;40.200;44.582;2023-06-22T02:34:01;1.00;;;0.63;;
80681;SDS011;70045;40.200;44.582;2023-06-22T02:36:27;2.47;;;1.00;;
80681;SDS011;70045;40.200;44.582;2023-06-22T02:38:52;2.67;;;1.40;;
80681;SDS011;70045;40.200;44.582;2023-06-22T02:41:18;1.95;;;0.95;;
80681;SDS011;70045;40.200;44.582;2023-06-22T02:43:46;0.93;;;0.82;;
80681;SDS011;70045;40.200;44.582;2023-06-22T02:46:15;3.80;;;0.93;;
80681;SDS011;70045;40.200;44.582;2023-06-22T02:48:40;2.30;;;1.00;;
80681;SDS011;70045;40.200;44.582;2023-06-22T02:51:06;3.03;;;0.70;;
80681;SDS011;70045;40.200;44.582;2023-06-22T02:53:31;2.67;;;0.65;;
80681;SDS011;70045;40.200;44.582;2023-06-22T02:55:56;3.58;;;0.68;;
80681;SDS011;70045;40.200;44.582;2023-06-22T02:58:25;1.00;;;0.55;;
80681;SDS011;70045;40.200;44.582;2023-06-22T03:00:50;1.13;;;0.70;;
80681;SDS011;70045;40.200;44.582;2023-06-22T03:03:15;2.35;;;0.70;;
80681;SDS011;70045;40.200;44.582;2023-06-22T03:05:41;0.75;;;0.52;;
80681;SDS011;70045;40.200;44.582;2023-06-22T03:08:06;0.45;;;0.45;;
80681;SDS011;70045;40.200;44.582;2023-06-22T03:10:34;0.70;;;0.70;;
80681;SDS011;70045;40.200;44.582;2023-06-22T03:13:00;0.47;;;0.47;;
80681;SDS011;70045;40.200;44.582;2023-06-22T03:15:25;1.60;;;0.88;;
80681;SDS011;70045;40.200;44.582;2023-06-22T03:17:51;1.88;;;0.65;;
80681;SDS011;70045;40.200;44.582;2023-06-22T03:20:16;3.33;;;1.15;;
80681;SDS011;70045;40.200;44.582;2023-06-22T03:22:44;1.10;;;0.98;;
80681;SDS011;70045;40.200;44.582;2023-06-22T03:25:09;1.85;;;1.10;;
80681;SDS011;70045;40.200;44.582;2023-06-22T03:27:38;4.20;;;1.13;;
80681;SDS011;70045;40.200;44.582;2023-06-22T03:30:04;1.67;;;1.48;;
80681;SDS011;70045;40.200;44.582;2023-06-22T03:32:30;2.30;;;1.20;;
80681;SDS011;70045;40.200;44.582;2023-06-22T03:34:58;1.45;;;1.10;;
80681;SDS011;70045;40.200;44.582;2023-06-22T03:37:24;3.95;;;1.60;;
80681;SDS011;70045;40.200;44.582;2023-06-22T03:39:50;5.63;;;1.70;;
80681;SDS011;70045;40.200;44.582;2023-06-22T03:42:16;4.43;;;1.98;;
80681;SDS011;70045;40.200;44.582;2023-06-22T03:44:42;3.00;;;1.40;;
80681;SDS011;70045;40.200;44.582;2023-06-22T03:47:10;3.15;;;1.50;;
80681;SDS011;70045;40.200;44.582;2023-06-22T03:49:35;3.90;;;1.63;;
80681;SDS011;70045;40.200;44.582;2023-06-22T03:52:01;5.53;;;1.80;;
80681;SDS011;70045;40.200;44.582;2023-06-22T03:54:30;6.25;;;1.70;;
80681;SDS011;70045;40.200;44.582;2023-06-22T03:56:56;7.53;;;1.77;;
80681;SDS011;70045;40.200;44.582;2023-06-22T03:59:26;7.13;;;2.00;;
80681;SDS011;70045;40.200;44.582;2023-06-22T04:01:51;5.20;;;1.60;;
80681;SDS011;70045;40.200;44.582;2023-06-22T04:04:17;4.43;;;1.90;;
80681;SDS011;70045;40.200;44.582;2023-06-22T04:06:43;6.28;;;1.92;;
80681;SDS011;70045;40.200;44.582;2023-06-22T04:09:08;5.60;;;1.80;;
80681;SDS011;70045;40.200;44.582;2023-06-22T04:11:36;4.50;;;1.50;;
80681;SDS011;70045;40.200;44.582;2023-06-22T04:14:02;9.07;;;2.10;;
80681;SDS011;70045;40.200;44.582;2023-06-22T04:16:27;6.65;;;2.67;;
80681;SDS011;70045;40.200;44.582;2023-06-22T04:18:53;10.45;;;2.30;;
80681;SDS011;70045;40.200;44.582;2023-06-22T04:21:18;4.82;;;1.85;;
80681;SDS011;70045;40.200;44.582;2023-06-22T04:23:47;3.35;;;1.55;;
80681;SDS011;70045;40.200;44.582;2023-06-22T04:26:13;6.25;;;1.80;;
80681;SDS011;70045;40.200;44.582;2023-06-22T04:28:38;4.72;;;1.70;;
80681;SDS011;70045;40.200;44.582;2023-06-22T04:31:04;5.10;;;1.88;;
80681;SDS011;70045;40.200;44.582;2023-06-22T04:33:30;3.85;;;1.67;;
80681;SDS011;70045;40.200;44.582;2023-06-22T04:35:59;6.20;;;1.60;;
80681;SDS011;70045;40.200;44.582;2023-06-22T04:38:24;4.65;;;1.70;;
80681;SDS011;70045;40.200;44.582;2023-06-22T04:40:50;7.32;;;1.88;;
80681;SDS011;70045;40.200;44.582;2023-06-22T04:43:16;6.78;;;1.60;;
80681;SDS011;70045;40.200;44.582;2023-06-22T04:45:41;7.50;;;1.80;;
80681;SDS011;70045;40.200;44.582;2023-06-22T04:48:10;3.70;;;1.70;;
80681;SDS011;70045;40.200;44.582;2023-06-22T04:50:36;4.53;;;1.80;;
80681;SDS011;70045;40.200;44.582;2023-06-22T04:53:01;4.53;;;1.48;;
80681;SDS011;70045;40.200;44.582;2023-06-22T04:55:27;3.50;;;1.63;;
80681;SDS011;70045;40.200;44.582;2023-06-22T04:57:52;7.03;;;1.80;;
80681;SDS011;70045;40.200;44.582;2023-06-22T05:00:20;9.75;;;2.15;;
80681;SDS011;70045;40.200;44.582;2023-06-22T05:02:46;7.05;;;2.03;;
80681;SDS011;70045;40.200;44.582;2023-06-22T05:05:12;2.67;;;1.50;;
80681;SDS011;70045;40.200;44.582;2023-06-22T05:07:38;4.15;;;1.67;;
80681;SDS011;70045;40.200;44.582;2023-06-22T05:10:04;5.47;;;2.00;;
80681;SDS011;70045;40.200;44.582;2023-06-22T05:12:33;3.72;;;1.60;;
80681;SDS011;70045;40.200;44.582;2023-06-22T05:14:58;4.35;;;1.70;;
80681;SDS011;70045;40.200;44.582;2023-06-22T05:17:24;3.53;;;1.58;;
80681;SDS011;70045;40.200;44.582;2023-06-22T05:19:50;3.63;;;1.40;;
80681;SDS011;70045;40.200;44.582;2023-06-22T05:22:15;4.75;;;1.83;;
80681;SDS011;70045;40.200;44.582;2023-06-22T05:24:45;5.57;;;1.63;;
80681;SDS011;70045;40.200;44.582;2023-06-22T05:27:11;3.05;;;1.50;;
80681;SDS011;70045;40.200;44.582;2023-06-22T05:29:37;5.22;;;1.67;;
80681;SDS011;70045;40.200;44.582;2023-06-22T05:32:02;3.13;;;1.60;;
80681;SDS011;70045;40.200;44.582;2023-06-22T05:34:28;3.72;;;1.35;;
80681;SDS011;70045;40.200;44.582;2023-06-22T05:36:57;3.92;;;1.60;;
80681;SDS011;70045;40.200;44.582;2023-06-22T05:39:23;4.55;;;1.73;;
80681;SDS011;70045;40.200;44.582;2023-06-22T05:41:48;6.10;;;1.73;;
80681;SDS011;70045;40.200;44.582;2023-06-22T05:44:14;3.05;;;1.50;;
80681;SDS011;70045;40.200;44.582;2023-06-22T05:46:40;4.35;;;1.70;;
80681;SDS011;70045;40.200;44.582;2023-06-22T05:49:09;4.47;;;1.50;;
80681;SDS011;70045;40.200;44.582;2023-06-22T05:51:36;2.53;;;1.30;;
80681;SDS011;70045;40.200;44.582;2023-06-22T05:54:01;4.85;;;1.75;;
80681;SDS011;70045;40.200;44.582;2023-06-22T05:56:27;5.43;;;1.95;;
80681;SDS011;70045;40.200;44.582;2023-06-22T05:58:52;3.13;;;1.52;;
80681;SDS011;70045;40.200;44.582;2023-06-22T06:01:21;4.45;;;1.52;;
80681;SDS011;70045;40.200;44.582;2023-06-22T06:03:46;6.72;;;2.00;;
80681;SDS011;70045;40.200;44.582;2023-06-22T06:06:11;3.38;;;1.60;;
80681;SDS011;70045;40.200;44.582;2023-06-22T06:08:40;5.53;;;1.83;;
80681;SDS011;70045;40.200;44.582;2023-06-22T06:11:06;9.75;;;1.80;;
80681;SDS011;70045;40.200;44.582;2023-06-22T06:13:34;7.97;;;1.85;;
80681;SDS011;70045;40.200;44.582;2023-06-22T06:15:59;5.60;;;1.92;;
80681;SDS011;70045;40.200;44.582;2023-06-22T06:18:25;4.03;;;2.00;;
80681;SDS011;70045;40.200;44.582;2023-06-22T06:20:50;4.22;;;1.90;;
80681;SDS011;70045;40.200;44.582;2023-06-22T06:23:16;7.47;;;1.98;;
80681;SDS011;70045;40.200;44.582;2023-06-22T06:25:44;5.15;;;1.80;;
80681;SDS011;70045;40.200;44.582;2023-06-22T06:28:09;4.78;;;1.40;;
80681;SDS011;70045;40.200;44.582;2023-06-22T06:30:34;4.18;;;1.88;;
80681;SDS011;70045;40.200;44.582;2023-06-22T06:33:00;3.60;;;1.55;;
80681;SDS011;70045;40.200;44.582;2023-06-22T06:35:25;3.20;;;1.77;;
80681;SDS011;70045;40.200;44.582;2023-06-22T06:37:54;4.85;;;2.00;;
80681;SDS011;70045;40.200;44.582;2023-06-22T06:40:19;5.50;;;1.70;;
80681;SDS011;70045;40.200;44.582;2023-06-22T06:42:45;5.13;;;1.70;;
80681;SDS011;70045;40.200;44.582;2023-06-22T06:45:12;4.22;;;1.52;;
80681;SDS011;70045;40.200;44.582;2023-06-22T06:47:45;4.65;;;1.63;;
80681;SDS011;70045;40.200;44.582;2023-06-22T06:50:14;3.78;;;1.60;;
80681;SDS011;70045;40.200;44.582;2023-06-22T06:52:40;3.35;;;1.55;;
80681;SDS011;70045;40.200;44.582;2023-06-22T06:55:05;5.22;;;1.77;;
80681;SDS011;70045;40.200;44.582;2023-06-22T06:57:31;3.40;;;1.67;;
80681;SDS011;70045;40.200;44.582;2023-06-22T06:59:56;7.82;;;1.70;;
80681;SDS011;70045;40.200;44.582;2023-06-22T07:02:25;7.35;;;1.60;;
80681;SDS011;70045;40.200;44.582;2023-06-22T07:04:52;2.38;;;1.50;;
80681;SDS011;70045;40.200;44.582;2023-06-22T07:07:17;3.50;;;1.60;;
80681;SDS011;70045;40.200;44.582;2023-06-22T07:09:46;6.43;;;1.73;;
80681;SDS011;70045;40.200;44.582;2023-06-22T07:12:11;4.43;;;1.70;;
80681;SDS011;70045;40.200;44.582;2023-06-22T07:14:39;3.70;;;1.80;;
80681;SDS011;70045;40.200;44.582;2023-06-22T07:17:05;3.38;;;1.20;;
80681;SDS011;70045;40.200;44.582;2023-06-22T07:19:32;3.35;;;1.25;;
80681;SDS011;70045;40.200;44.582;2023-06-22T07:21:58;2.85;;;1.40;;
80681;SDS011;70045;40.200;44.582;2023-06-22T07:24:23;3.72;;;1.10;;
80681;SDS011;70045;40.200;44.582;2023-06-22T07:26:52;2.78;;;1.25;;
80681;SDS011;70045;40.200;44.582;2023-06-22T07:29:17;2.85;;;1.10;;
80681;SDS011;70045;40.200;44.582;2023-06-22T07:31:44;4.00;;;1.35;;
80681;SDS011;70045;40.200;44.582;2023-06-22T07:34:09;3.90;;;1.30;;
80681;SDS011;70045;40.200;44.582;2023-06-22T07:36:35;5.35;;;1.38;;
80681;SDS011;70045;40.200;44.582;2023-06-22T07:39:05;4.60;;;1.42;;
80681;SDS011;70045;40.200;44.582;2023-06-22T07:41:31;5.32;;;1.67;;
80681;SDS011;70045;40.200;44.582;2023-06-22T07:43:57;4.82;;;1.42;;
80681;SDS011;70045;40.200;44.582;2023-06-22T07:46:23;3.90;;;1.35;;
80681;SDS011;70045;40.200;44.582;2023-06-22T07:48:49;4.50;;;1.60;;
80681;SDS011;70045;40.200;44.582;2023-06-22T07:51:17;3.65;;;1.55;;
80681;SDS011;70045;40.200;44.582;2023-06-22T07:53:43;4.28;;;1.80;;
80681;SDS011;70045;40.200;44.582;2023-06-22T07:56:12;3.75;;;1.73;;
80681;SDS011;70045;40.200;44.582;2023-06-22T07:58:38;3.90;;;1.63;;
80681;SDS011;70045;40.200;44.582;2023-06-22T08:01:04;4.97;;;1.80;;
80681;SDS011;70045;40.200;44.582;2023-06-22T08:03:33;6.50;;;1.90;;
80681;SDS011;70045;40.200;44.582;2023-06-22T08:05:58;13.50;;;2.65;;
80681;SDS011;70045;40.200;44.582;2023-06-22T08:08:23;7.82;;;2.17;;
80681;SDS011;70045;40.200;44.582;2023-06-22T08:10:49;6.88;;;1.98;;
80681;SDS011;70045;40.200;44.582;2023-06-22T08:13:15;13.60;;;2.17;;
80681;SDS011;70045;40.200;44.582;2023-06-22T08:15:43;6.90;;;2.00;;
80681;SDS011;70045;40.200;44.582;2023-06-22T08:18:08;5.25;;;2.00;;
80681;SDS011;70045;40.200;44.582;2023-06-22T08:20:34;4.47;;;1.80;;
80681;SDS011;70045;40.200;44.582;2023-06-22T08:22:59;5.20;;;1.73;;
80681;SDS011;70045;40.200;44.582;2023-06-22T08:25:25;6.05;;;1.80;;
80681;SDS011;70045;40.200;44.582;2023-06-22T08:27:53;5.97;;;1.55;;
80681;SDS011;70045;40.200;44.582;2023-06-22T08:30:18;4.50;;;1.45;;
80681;SDS011;70045;40.200;44.582;2023-06-22T08:32:44;8.80;;;1.75;;
80681;SDS011;70045;40.200;44.582;2023-06-22T08:35:09;8.32;;;1.70;;
80681;SDS011;70045;40.200;44.582;2023-06-22T08:37:35;11.40;;;1.80;;
80681;SDS011;70045;40.200;44.582;2023-06-22T08:40:04;10.55;;;1.70;;
80681;SDS011;70045;40.200;44.582;2023-06-22T08:44:56;6.27;;;1.70;;
80681;SDS011;70045;40.200;44.582;2023-06-22T08:47:22;6.50;;;1.58;;
80681;SDS011;70045;40.200;44.582;2023-06-22T08:49:47;18.00;;;1.60;;
80681;SDS011;70045;40.200;44.582;2023-06-22T08:52:17;35.08;;;2.17;;
80681;SDS011;70045;40.200;44.582;2023-06-22T08:54:43;18.27;;;1.90;;
80681;SDS011;70045;40.200;44.582;2023-06-22T08:57:08;9.98;;;1.50;;
80681;SDS011;70045;40.200;44.582;2023-06-22T08:59:34;8.68;;;1.50;;
80681;SDS011;70045;40.200;44.582;2023-06-22T09:02:00;5.63;;;2.10;;
80681;SDS011;70045;40.200;44.582;2023-06-22T09:04:28;5.82;;;2.45;;
80681;SDS011;70045;40.200;44.582;2023-06-22T09:06:54;6.38;;;2.38;;
80681;SDS011;70045;40.200;44.582;2023-06-22T09:09:20;5.68;;;2.47;;
80681;SDS011;70045;40.200;44.582;2023-06-22T09:11:46;6.15;;;2.13;;
80681;SDS011;70045;40.200;44.582;2023-06-22T09:14:12;6.55;;;2.65;;
80681;SDS011;70045;40.200;44.582;2023-06-22T09:16:40;6.10;;;2.20;;
80681;SDS011;70045;40.200;44.582;2023-06-22T09:19:05;4.68;;;1.88;;
80681;SDS011;70045;40.200;44.582;2023-06-22T09:21:31;3.70;;;1.80;;
80681;SDS011;70045;40.200;44.582;2023-06-22T09:23:56;3.92;;;1.90;;
80681;SDS011;70045;40.200;44.582;2023-06-22T09:26:22;4.70;;;1.98;;
80681;SDS011;70045;40.200;44.582;2023-06-22T09:28:50;6.30;;;2.00;;
80681;SDS011;70045;40.200;44.582;2023-06-22T09:31:15;4.38;;;1.52;;
80681;SDS011;70045;40.200;44.582;2023-06-22T09:33:41;3.53;;;1.90;;
80681;SDS011;70045;40.200;44.582;2023-06-22T09:36:06;3.55;;;1.70;;
80681;SDS011;70045;40.200;44.582;2023-06-22T09:38:32;2.47;;;1.33;;
80681;SDS011;70045;40.200;44.582;2023-06-22T09:41:03;3.45;;;1.52;;
80681;SDS011;70045;40.200;44.582;2023-06-22T09:43:29;6.03;;;1.50;;
80681;SDS011;70045;40.200;44.582;2023-06-22T09:45:56;2.22;;;1.40;;
80681;SDS011;70045;40.200;44.582;2023-06-22T09:48:21;2.38;;;1.55;;
80681;SDS011;70045;40.200;44.582;2023-06-22T09:50:47;3.50;;;1.60;;
80681;SDS011;70045;40.200;44.582;2023-06-22T09:53:15;3.83;;;1.52;;
80681;SDS011;70045;40.200;44.582;2023-06-22T09:55:41;3.67;;;1.67;;
80681;SDS011;70045;40.200;44.582;2023-06-22T09:58:07;4.13;;;1.60;;
80681;SDS011;70045;40.200;44.582;2023-06-22T10:00:33;4.40;;;1.70;;
80681;SDS011;70045;40.200;44.582;2023-06-22T10:02:58;4.35;;;1.63;;
80681;SDS011;70045;40.200;44.582;2023-06-22T10:05:26;4.13;;;2.03;;
80681;SDS011;70045;40.200;44.582;2023-06-22T10:07:52;3.35;;;1.58;;
80681;SDS011;70045;40.200;44.582;2023-06-22T10:10:17;6.15;;;2.63;;
80681;SDS011;70045;40.200;44.582;2023-06-22T10:12:44;7.35;;;2.78;;
80681;SDS011;70045;40.200;44.582;2023-06-22T10:15:11;5.38;;;2.67;;
80681;SDS011;70045;40.200;44.582;2023-06-22T10:17:40;4.35;;;2.10;;
80681;SDS011;70045;40.200;44.582;2023-06-22T10:20:08;5.13;;;2.08;;
80681;SDS011;70045;40.200;44.582;2023-06-22T10:22:43;3.33;;;1.80;;
80681;SDS011;70045;40.200;44.582;2023-06-22T10:25:10;3.30;;;1.60;;
80681;SDS011;70045;40.200;44.582;2023-06-22T10:27:36;2.85;;;1.30;;
80681;SDS011;70045;40.200;44.582;2023-06-22T10:30:05;1.48;;;1.17;;
80681;SDS011;70045;40.200;44.582;2023-06-22T10:32:32;3.45;;;1.20;;
80681;SDS011;70045;40.200;44.582;2023-06-22T10:34:57;4.70;;;1.60;;
80681;SDS011;70045;40.200;44.582;2023-06-22T10:37:22;4.35;;;1.42;;
80681;SDS011;70045;40.200;44.582;2023-06-22T10:39:48;1.75;;;1.17;;
80681;SDS011;70045;40.200;44.582;2023-06-22T10:42:16;1.67;;;0.90;;
80681;SDS011;70045;40.200;44.582;2023-06-22T10:44:42;1.13;;;0.80;;
80681;SDS011;70045;40.200;44.582;2023-06-22T10:47:08;1.15;;;1.00;;
80681;SDS011;70045;40.200;44.582;2023-06-22T10:49:33;1.83;;;1.00;;
80681;SDS011;70045;40.200;44.582;2023-06-22T10:51:58;0.98;;;0.80;;
80681;SDS011;70045;40.200;44.582;2023-06-22T10:54:27;1.00;;;0.80;;
80681;SDS011;70045;40.200;44.582;2023-06-22T10:56:52;1.42;;;1.25;;
80681;SDS011;70045;40.200;44.582;2023-06-22T10:59:17;1.65;;;0.80;;
80681;SDS011;70045;40.200;44.582;2023-06-22T11:01:43;3.03;;;1.10;;
80681;SDS011;70045;40.200;44.582;2023-06-22T11:04:08;2.13;;;1.15;;
80681;SDS011;70045;40.200;44.582;2023-06-22T11:06:36;1.83;;;1.15;;
80681;SDS011;70045;40.200;44.582;2023-06-22T11:09:02;4.97;;;2.30;;
80681;SDS011;70045;40.200;44.582;2023-06-22T11:11:27;1.90;;;1.08;;
80681;SDS011;70045;40.200;44.582;2023-06-22T11:13:52;3.90;;;1.63;;
80681;SDS011;70045;40.200;44.582;2023-06-22T11:16:18;5.88;;;2.60;;
80681;SDS011;70045;40.200;44.582;2023-06-22T11:18:46;7.43;;;2.30;;
80681;SDS011;70045;40.200;44.582;2023-06-22T11:21:11;7.07;;;2.47;;
80681;SDS011;70045;40.200;44.582;2023-06-22T11:23:37;3.88;;;1.88;;
80681;SDS011;70045;40.200;44.582;2023-06-22T11:26:02;4.75;;;1.90;;
80681;SDS011;70045;40.200;44.582;2023-06-22T11:28:28;5.07;;;2.40;;
80681;SDS011;70045;40.200;44.582;2023-06-22T11:30:57;4.72;;;2.10;;
80681;SDS011;70045;40.200;44.582;2023-06-22T11:33:22;7.55;;;2.25;;
80681;SDS011;70045;40.200;44.582;2023-06-22T11:35:47;8.77;;;3.50;;
80681;SDS011;70045;40.200;44.582;2023-06-22T11:38:13;6.35;;;1.80;;
80681;SDS011;70045;40.200;44.582;2023-06-22T11:40:38;4.25;;;2.10;;
80681;SDS011;70045;40.200;44.582;2023-06-22T11:43:06;4.95;;;1.88;;
80681;SDS011;70045;40.200;44.582;2023-06-22T11:45:32;7.00;;;2.10;;
80681;SDS011;70045;40.200;44.582;2023-06-22T11:48:00;2.25;;;1.50;;
80681;SDS011;70045;40.200;44.582;2023-06-22T11:50:33;4.28;;;1.80;;
80681;SDS011;70045;40.200;44.582;2023-06-22T11:52:59;6.80;;;1.80;;
80681;SDS011;70045;40.200;44.582;2023-06-22T11:55:27;2.80;;;1.67;;
80681;SDS011;70045;40.200;44.582;2023-06-22T11:57:53;6.47;;;2.20;;
80681;SDS011;70045;40.200;44.582;2023-06-22T12:00:21;3.72;;;1.70;;
80681;SDS011;70045;40.200;44.582;2023-06-22T12:02:46;3.90;;;1.70;;
80681;SDS011;70045;40.200;44.582;2023-06-22T12:05:12;4.38;;;2.10;;
80681;SDS011;70045;40.200;44.582;2023-06-22T12:07:41;8.25;;;3.40;;
80681;SDS011;70045;40.200;44.582;2023-06-22T12:12:32;3.63;;;1.60;;
80681;SDS011;70045;40.200;44.582;2023-06-22T12:14:57;2.72;;;1.45;;
80681;SDS011;70045;40.200;44.582;2023-06-22T12:17:23;13.57;;;2.80;;
80681;SDS011;70045;40.200;44.582;2023-06-22T12:19:51;4.68;;;1.60;;
80681;SDS011;70045;40.200;44.582;2023-06-22T12:22:16;3.20;;;1.50;;
80681;SDS011;70045;40.200;44.582;2023-06-22T12:24:42;4.13;;;1.70;;
80681;SDS011;70045;40.200;44.582;2023-06-22T12:27:07;2.17;;;1.40;;
80681;SDS011;70045;40.200;44.582;2023-06-22T12:29:33;3.33;;;1.60;;
80681;SDS011;70045;40.200;44.582;2023-06-22T12:32:01;2.28;;;1.38;;
80681;SDS011;70045;40.200;44.582;2023-06-22T12:34:27;2.75;;;1.60;;
80681;SDS011;70045;40.200;44.582;2023-06-22T12:36:52;4.65;;;1.70;;
80681;SDS011;70045;40.200;44.582;2023-06-22T12:39:18;6.72;;;1.70;;
80681;SDS011;70045;40.200;44.582;2023-06-22T12:41:47;2.03;;;1.30;;
80681;SDS011;70045;40.200;44.582;2023-06-22T12:44:16;3.50;;;1.40;;
80681;SDS011;70045;40.200;44.582;2023-06-22T12:46:42;4.18;;;1.38;;
80681;SDS011;70045;40.200;44.582;2023-06-22T12:49:07;3.53;;;1.70;;
80681;SDS011;70045;40.200;44.582;2023-06-22T12:51:33;5.22;;;1.80;;
80681;SDS011;70045;40.200;44.582;2023-06-22T12:53:58;3.45;;;1.70;;
80681;SDS011;70045;40.200;44.582;2023-06-22T12:56:27;3.97;;;1.80;;
80681;SDS011;70045;40.200;44.582;2023-06-22T12:58:52;3.20;;;1.50;;
80681;SDS011;70045;40.200;44.582;2023-06-22T13:01:18;2.67;;;1.48;;
80681;SDS011;70045;40.200;44.582;2023-06-22T13:03:43;5.00;;;1.30;;
80681;SDS011;70045;40.200;44.582;2023-06-22T13:06:09;3.10;;;1.50;;
80681;SDS011;70045;40.200;44.582;2023-06-22T13:08:37;1.80;;;1.25;;
80681;SDS011;70045;40.200;44.582;2023-06-22T13:11:02;2.35;;;1.20;;
80681;SDS011;70045;40.200;44.582;2023-06-22T13:13:28;3.17;;;1.30;;
80681;SDS011;70045;40.200;44.582;2023-06-22T13:15:53;4.15;;;2.00;;
80681;SDS011;70045;40.200;44.582;2023-06-22T13:18:18;4.95;;;2.10;;
80681;SDS011;70045;40.200;44.582;2023-06-22T13:20:47;6.18;;;2.28;;
80681;SDS011;70045;40.200;44.582;2023-06-22T13:23:12;4.68;;;2.10;;
80681;SDS011;70045;40.200;44.582;2023-06-22T13:25:37;5.10;;;2.45;;
80681;SDS011;70045;40.200;44.582;2023-06-22T13:28:03;7.85;;;2.67;;
80681;SDS011;70045;40.200;44.582;2023-06-22T13:30:29;6.82;;;2.25;;
80681;SDS011;70045;40.200;44.582;2023-06-22T13:32:58;3.88;;;1.98;;
80681;SDS011;70045;40.200;44.582;2023-06-22T13:35:24;4.68;;;2.28;;
80681;SDS011;70045;40.200;44.582;2023-06-22T13:37:49;6.57;;;2.05;;
80681;SDS011;70045;40.200;44.582;2023-06-22T13:40:14;5.45;;;2.70;;
80681;SDS011;70045;40.200;44.582;2023-06-22T13:42:43;5.63;;;2.65;;
80681;SDS011;70045;40.200;44.582;2023-06-22T13:45:11;5.43;;;2.38;;
80681;SDS011;70045;40.200;44.582;2023-06-22T13:47:37;8.38;;;2.80;;
80681;SDS011;70045;40.200;44.582;2023-06-22T13:50:02;4.45;;;2.40;;
80681;SDS011;70045;40.200;44.582;2023-06-22T13:52:28;5.43;;;2.40;;
80681;SDS011;70045;40.200;44.582;2023-06-22T13:54:53;4.20;;;2.20;;
80681;SDS011;70045;40.200;44.582;2023-06-22T13:57:22;4.45;;;2.15;;
80681;SDS011;70045;40.200;44.582;2023-06-22T13:59:47;5.05;;;2.15;;
80681;SDS011;70045;40.200;44.582;2023-06-22T14:02:12;4.32;;;2.00;;
80681;SDS011;70045;40.200;44.582;2023-06-22T14:04:38;3.35;;;1.90;;
80681;SDS011;70045;40.200;44.582;2023-06-22T14:07:03;2.92;;;1.90;;
80681;SDS011;70045;40.200;44.582;2023-06-22T14:09:32;2.78;;;1.92;;
80681;SDS011;70045;40.200;44.582;2023-06-22T14:11:57;5.13;;;2.20;;
80681;SDS011;70045;40.200;44.582;2023-06-22T14:14:27;4.20;;;2.10;;
80681;SDS011;70045;40.200;44.582;2023-06-22T14:16:52;4.35;;;2.00;;
80681;SDS011;70045;40.200;44.582;2023-06-22T14:19:18;5.90;;;2.38;;
80681;SDS011;70045;40.200;44.582;2023-06-22T14:21:46;5.82;;;2.47;;
80681;SDS011;70045;40.200;44.582;2023-06-22T14:24:12;5.93;;;2.22;;
80681;SDS011;70045;40.200;44.582;2023-06-22T14:26:37;6.50;;;2.50;;
80681;SDS011;70045;40.200;44.582;2023-06-22T14:29:02;5.85;;;2.53;;
80681;SDS011;70045;40.200;44.582;2023-06-22T14:31:28;7.70;;;2.72;;
80681;SDS011;70045;40.200;44.582;2023-06-22T14:33:56;5.68;;;2.63;;
80681;SDS011;70045;40.200;44.582;2023-06-22T14:36:21;6.00;;;2.95;;
80681;SDS011;70045;40.200;44.582;2023-06-22T14:38:46;5.07;;;2.80;;
80681;SDS011;70045;40.200;44.582;2023-06-22T14:41:12;6.95;;;2.88;;
80681;SDS011;70045;40.200;44.582;2023-06-22T14:43:37;5.45;;;2.50;;
80681;SDS011;70045;40.200;44.582;2023-06-22T14:46:06;4.03;;;2.20;;